Time;durP1;ratioP1;P1;durP2;ratioP2;P2;SDS_P1;SDS_P2;PMS_P1;PMS_P2;Temp;Humidity;BMP_temperature;BMP_pressure;BME280_temperature;BME280_humidity;BME280_pressure;Samples;Min_cycle;Max_cycle;Signal;HPM_P1;HPM_P2
2021/04/14 00:01:03;;;;;;;;;;;17.70;48.20;;;;;;5047031;28;20016;-58
2021/04/14 00:03:29;;;;;;;;;;;17.70;48.20;;;;;;5046358;28;19967;-58
2021/04/14 00:05:55;;;;;;;;;;;17.70;48.20;;;;;;5046440;28;20004;-59
2021/04/14 00:08:20;;;;;;;;;;;17.70;48.10;;;;;;5045648;28;20163;-57
2021/04/14 00:10:46;;;;;;;;;;;17.70;48.30;;;;;;5046442;28;19978;-59
2021/04/14 00:13:13;;;;;;;;;;;17.70;48.30;;;;;;5042809;28;19917;-57
2021/04/14 00:15:40;;;;;;;;;;;17.70;48.20;;;;;;5043086;28;19923;-57
2021/04/14 00:18:06;;;;;;;;;;;17.70;48.20;;;;;;5043226;28;19929;-57
2021/04/14 00:20:32;;;;;;;;;;;17.70;48.20;;;;;;5025312;28;19917;-58
2021/04/14 00:22:57;;;;;;;;;;;17.60;48.30;;;;;;5043064;28;20294;-58
2021/04/14 00:25:24;;;;;;;;;;;17.60;48.30;;;;;;5042537;28;19923;-59
2021/04/14 00:27:49;;;;;;;;;;;17.60;48.40;;;;;;5044667;28;19971;-57
2021/04/14 00:30:15;;;;;;;;;;;17.60;48.40;;;;;;5044837;28;20417;-59
2021/04/14 00:32:40;;;;;;;;;;;17.60;48.40;;;;;;5044358;28;19924;-58
2021/04/14 00:35:06;;;;;;;;;;;17.60;48.40;;;;;;5044640;28;20297;-56
2021/04/14 00:37:32;;;;;;;;;;;17.60;48.40;;;;;;5054497;22;19925;-59
2021/04/14 00:39:57;;;;;;;;;;;17.60;48.40;;;;;;5040952;28;19921;-59
2021/04/14 00:42:23;;;;;;;;;;;17.60;48.40;;;;;;5041661;28;20030;-59
2021/04/14 00:44:48;;;;;;;;;;;17.50;48.30;;;;;;5040713;28;19924;-60
2021/04/14 00:47:14;;;;;;;;;;;17.50;48.40;;;;;;5040835;28;19917;-60
2021/04/14 00:49:40;;;;;;;;;;;17.50;48.40;;;;;;5043377;28;19971;-58
2021/04/14 00:52:05;;;;;;;;;;;17.50;48.40;;;;;;5042444;28;19916;-61
2021/04/14 00:54:31;;;;;;;;;;;17.50;48.40;;;;;;5041997;28;20020;-57
2021/04/14 00:56:56;;;;;;;;;;;17.50;48.50;;;;;;5024980;28;20348;-59
2021/04/14 00:59:22;;;;;;;;;;;17.50;48.40;;;;;;5023874;28;19966;-57
2021/04/14 01:01:47;;;;;;;;;;;17.60;48.40;;;;;;5043313;28;19932;-59
2021/04/14 01:04:13;;;;;;;;;;;17.60;48.40;;;;;;5040885;28;19917;-59
2021/04/14 01:06:38;;;;;;;;;;;17.60;48.60;;;;;;5041606;28;20554;-58
2021/04/14 01:09:03;;;;;;;;;;;17.60;48.20;;;;;;5043264;28;19939;-59
2021/04/14 01:11:29;;;;;;;;;;;17.60;48.20;;;;;;5041600;28;19916;-59
2021/04/14 01:13:54;;;;;;;;;;;17.60;48.20;;;;;;5023367;28;19925;-59
2021/04/14 01:16:20;;;;;;;;;;;17.60;48.20;;;;;;5041780;28;20364;-59
2021/04/14 01:18:45;;;;;;;;;;;17.60;48.10;;;;;;5042613;28;19921;-58
2021/04/14 01:21:18;;;;;;;;;;;17.60;48.00;;;;;;5023710;28;20368;-57
2021/04/14 01:23:44;;;;;;;;;;;17.70;48.00;;;;;;5040745;28;19963;-58
2021/04/14 01:26:09;;;;;;;;;;;17.60;47.90;;;;;;5041649;28;19917;-59
2021/04/14 01:28:36;;;;;;;;;;;17.70;48.00;;;;;;5058097;28;20439;-59
2021/04/14 01:31:02;;;;;;;;;;;17.70;47.90;;;;;;5042137;28;19916;-59
2021/04/14 01:33:29;;;;;;;;;;;17.70;47.70;;;;;;5041853;28;20435;-59
2021/04/14 01:35:54;;;;;;;;;;;17.70;47.70;;;;;;5041865;28;19927;-58
2021/04/14 01:38:20;;;;;;;;;;;17.70;47.70;;;;;;5057393;28;19921;-59
2021/04/14 01:40:45;;;;;;;;;;;17.70;47.70;;;;;;5055338;28;19970;-59
2021/04/14 01:43:11;;;;;;;;;;;17.70;47.70;;;;;;5041081;28;19967;-57
2021/04/14 01:45:37;;;;;;;;;;;17.70;47.70;;;;;;5041264;28;19924;-61
2021/04/14 01:48:03;;;;;;;;;;;17.70;47.80;;;;;;5041142;28;19917;-59
2021/04/14 01:50:28;;;;;;;;;;;17.70;47.70;;;;;;5041518;28;20020;-60
2021/04/14 01:52:54;;;;;;;;;;;17.70;47.90;;;;;;5041739;28;20293;-60
2021/04/14 01:55:20;;;;;;;;;;;17.70;47.80;;;;;;5041401;28;20289;-60
2021/04/14 01:57:47;;;;;;;;;;;17.70;47.70;;;;;;5023646;28;20433;-60
2021/04/14 02:00:15;;;;;;;;;;;17.70;47.70;;;;;;5008140;28;19945;-60
2021/04/14 02:02:41;;;;;;;;;;;17.70;47.70;;;;;;5040318;28;20330;-59
2021/04/14 02:05:06;;;;;;;;;;;17.70;47.70;;;;;;5041054;28;19927;-61
2021/04/14 02:07:32;;;;;;;;;;;17.60;47.60;;;;;;5040895;28;20003;-59
2021/04/14 02:09:57;;;;;;;;;;;17.70;47.70;;;;;;5039842;28;19917;-59
2021/04/14 02:12:22;;;;;;;;;;;17.70;47.70;;;;;;5022208;28;20392;-59
2021/04/14 02:14:48;;;;;;;;;;;17.70;47.50;;;;;;5041783;28;19916;-59
2021/04/14 02:17:13;;;;;;;;;;;17.70;47.60;;;;;;5042787;28;19917;-59
2021/04/14 02:19:39;;;;;;;;;;;17.70;47.50;;;;;;5045121;28;19925;-59
2021/04/14 02:22:04;;;;;;;;;;;17.70;47.50;;;;;;5044828;28;19971;-59
2021/04/14 02:24:30;;;;;;;;;;;17.70;47.50;;;;;;5044220;28;19917;-59
2021/04/14 02:26:55;;;;;;;;;;;17.70;47.50;;;;;;5043937;28;19925;-58
2021/04/14 02:29:21;;;;;;;;;;;17.70;47.50;;;;;;5044323;28;20424;-59
2021/04/14 02:31:46;;;;;;;;;;;17.70;47.50;;;;;;5043843;28;19951;-57
2021/04/14 02:34:12;;;;;;;;;;;17.70;47.50;;;;;;5043147;28;19972;-58
2021/04/14 02:36:38;;;;;;;;;;;17.70;47.40;;;;;;5026702;28;19925;-59
2021/04/14 02:39:03;;;;;;;;;;;17.70;47.30;;;;;;5044724;28;19999;-58
2021/04/14 02:41:29;;;;;;;;;;;17.70;47.40;;;;;;5043994;28;19979;-59
2021/04/14 02:43:54;;;;;;;;;;;17.70;47.30;;;;;;5044433;28;19917;-59
2021/04/14 02:46:20;;;;;;;;;;;17.70;47.30;;;;;;5044868;28;19956;-58
2021/04/14 02:48:49;;;;;;;;;;;17.70;47.30;;;;;;5043637;28;19917;-59
2021/04/14 02:51:14;;;;;;;;;;;17.70;47.30;;;;;;5039611;28;20368;-59
2021/04/14 02:53:40;;;;;;;;;;;17.70;47.30;;;;;;5025828;28;19925;-59
2021/04/14 02:56:05;;;;;;;;;;;17.70;47.30;;;;;;5044780;28;20451;-60
2021/04/14 02:58:31;;;;;;;;;;;17.70;47.30;;;;;;5026394;28;19921;-59
2021/04/14 03:00:56;;;;;;;;;;;17.70;47.30;;;;;;5043077;28;19963;-59
2021/04/14 03:03:22;;;;;;;;;;;17.70;47.30;;;;;;5025370;28;19921;-59
2021/04/14 03:05:48;;;;;;;;;;;17.70;47.30;;;;;;5043948;28;20409;-59
2021/04/14 03:08:13;;;;;;;;;;;17.70;47.30;;;;;;5025016;28;20545;-59
2021/04/14 03:10:39;;;;;;;;;;;17.60;47.30;;;;;;5043318;28;19917;-59
2021/04/14 03:13:04;;;;;;;;;;;17.60;47.30;;;;;;5044064;28;19990;-57
2021/04/14 03:15:31;;;;;;;;;;;17.60;47.40;;;;;;5044357;28;20316;-59
2021/04/14 03:17:56;;;;;;;;;;;17.60;47.40;;;;;;5024157;28;19947;-59
2021/04/14 03:20:22;;;;;;;;;;;17.60;47.40;;;;;;5026772;28;20598;-58
2021/04/14 03:22:48;;;;;;;;;;;17.60;47.40;;;;;;5043776;28;19924;-59
2021/04/14 03:25:13;;;;;;;;;;;17.60;47.40;;;;;;5043577;28;19917;-59
2021/04/14 03:27:39;;;;;;;;;;;17.60;47.30;;;;;;5042709;28;19924;-59
2021/04/14 03:30:05;;;;;;;;;;;17.60;47.50;;;;;;5044496;28;19921;-59
2021/04/14 03:32:31;;;;;;;;;;;17.60;47.40;;;;;;5044398;28;19921;-57
2021/04/14 03:34:56;;;;;;;;;;;17.60;47.40;;;;;;5043582;28;19982;-60
2021/04/14 03:37:21;;;;;;;;;;;17.60;47.30;;;;;;5043800;28;19920;-60
2021/04/14 03:39:47;;;;;;;;;;;17.60;47.30;;;;;;5043939;28;19916;-60
2021/04/14 03:42:13;;;;;;;;;;;17.60;47.40;;;;;;5043612;28;19925;-60
2021/04/14 03:44:38;;;;;;;;;;;17.60;47.40;;;;;;5044812;28;19917;-59
2021/04/14 03:47:04;;;;;;;;;;;17.60;47.30;;;;;;5060028;28;20622;-60
2021/04/14 03:49:30;;;;;;;;;;;17.60;47.40;;;;;;5043869;28;20380;-57
2021/04/14 03:51:55;;;;;;;;;;;17.60;47.30;;;;;;5044167;28;19964;-59
2021/04/14 03:54:21;;;;;;;;;;;17.60;47.30;;;;;;5043472;28;19917;-57
2021/04/14 03:56:47;;;;;;;;;;;17.60;47.30;;;;;;5044434;28;20019;-58
2021/04/14 03:59:12;;;;;;;;;;;17.60;47.30;;;;;;5043227;28;19970;-59
2021/04/14 04:01:38;;;;;;;;;;;17.60;47.30;;;;;;5043499;28;19925;-61
2021/04/14 04:04:03;;;;;;;;;;;17.60;47.30;;;;;;5026968;28;19929;-59
2021/04/14 04:06:29;;;;;;;;;;;17.60;47.40;;;;;;5044737;28;19939;-57
2021/04/14 04:08:54;;;;;;;;;;;17.60;47.30;;;;;;5044127;28;19924;-56
2021/04/14 04:11:20;;;;;;;;;;;17.60;47.40;;;;;;5044051;28;19967;-59
2021/04/14 04:13:46;;;;;;;;;;;17.60;47.30;;;;;;5043804;28;19917;-57
2021/04/14 04:16:11;;;;;;;;;;;17.60;47.40;;;;;;5058200;28;19927;-59
2021/04/14 04:18:37;;;;;;;;;;;17.70;47.40;;;;;;5042358;28;19917;-61
2021/04/14 04:21:05;;;;;;;;;;;17.60;48.00;;;;;;5044283;28;19921;-60
2021/04/14 04:23:31;;;;;;;;;;;17.60;47.40;;;;;;5043870;28;19924;-60
2021/04/14 04:25:56;;;;;;;;;;;17.60;47.50;;;;;;5043461;28;19925;-59
2021/04/14 04:28:22;;;;;;;;;;;17.60;47.50;;;;;;5044337;28;19920;-57
2021/04/14 04:30:47;;;;;;;;;;;17.60;47.60;;;;;;5057785;28;20464;-59
2021/04/14 04:33:13;;;;;;;;;;;17.60;47.70;;;;;;5043150;28;19920;-60
2021/04/14 04:35:38;;;;;;;;;;;17.60;47.70;;;;;;5042660;28;20488;-64
2021/04/14 04:38:04;;;;;;;;;;;17.60;47.70;;;;;;5042933;28;19948;-58
2021/04/14 04:40:29;;;;;;;;;;;17.60;47.70;;;;;;5043066;28;19920;-59
2021/04/14 04:42:54;;;;;;;;;;;17.60;47.70;;;;;;5042346;28;19928;-59
2021/04/14 04:45:21;;;;;;;;;;;17.60;48.00;;;;;;5044066;28;20456;-58
2021/04/14 04:47:46;;;;;;;;;;;17.60;48.30;;;;;;5042753;28;20047;-60
2021/04/14 04:50:12;;;;;;;;;;;17.60;48.40;;;;;;5043434;28;19927;-56
2021/04/14 04:52:37;;;;;;;;;;;17.60;48.50;;;;;;5043078;28;19916;-59
2021/04/14 04:55:03;;;;;;;;;;;17.60;48.50;;;;;;5043316;28;19995;-58
2021/04/14 04:57:29;;;;;;;;;;;17.60;48.40;;;;;;5041250;28;19925;-59
2021/04/14 04:59:55;;;;;;;;;;;17.60;48.30;;;;;;5043054;28;19917;-59
2021/04/14 05:02:20;;;;;;;;;;;17.60;48.30;;;;;;5042476;28;19921;-58
2021/04/14 05:04:46;;;;;;;;;;;17.60;48.30;;;;;;5057266;28;19943;-56
2021/04/14 05:07:11;;;;;;;;;;;17.60;48.20;;;;;;5042114;28;19917;-58
2021/04/14 05:09:37;;;;;;;;;;;17.60;48.20;;;;;;5043791;28;20313;-59
2021/04/14 05:12:02;;;;;;;;;;;17.60;48.10;;;;;;5024698;28;19921;-60
2021/04/14 05:14:28;;;;;;;;;;;17.60;48.10;;;;;;5042872;28;19924;-60
2021/04/14 05:16:53;;;;;;;;;;;17.60;48.40;;;;;;5025531;28;19917;-60
2021/04/14 05:19:19;;;;;;;;;;;17.60;48.40;;;;;;5042505;28;19952;-60
2021/04/14 05:21:44;;;;;;;;;;;17.60;48.60;;;;;;5026303;28;19964;-60
2021/04/14 05:24:10;;;;;;;;;;;17.50;48.70;;;;;;5030948;28;19916;-60
2021/04/14 05:26:35;;;;;;;;;;;17.50;49.00;;;;;;5052884;28;19917;-60
2021/04/14 05:29:01;;;;;;;;;;;17.50;49.10;;;;;;5043407;28;20025;-59
2021/04/14 05:31:29;;;;;;;;;;;17.50;49.10;;;;;;5041610;28;19948;-59
2021/04/14 05:33:58;;;;;;;;;;;17.40;49.40;;;;;;5058907;28;20376;-59
2021/04/14 05:36:23;;;;;;;;;;;17.40;49.80;;;;;;5042843;28;20385;-59
2021/04/14 05:38:49;;;;;;;;;;;17.40;50.10;;;;;;5059824;28;19925;-65
2021/04/14 05:41:15;;;;;;;;;;;17.40;50.50;;;;;;5045245;28;20278;-59
2021/04/14 05:43:40;;;;;;;;;;;17.50;50.50;;;;;;5044435;28;19962;-59
2021/04/14 05:46:07;;;;;;;;;;;17.50;50.60;;;;;;5044216;28;19920;-59
2021/04/14 05:48:32;;;;;;;;;;;17.50;50.70;;;;;;5044318;28;19927;-60
2021/04/14 05:50:59;;;;;;;;;;;17.50;50.70;;;;;;5043703;28;19917;-59
2021/04/14 05:53:25;;;;;;;;;;;17.50;50.80;;;;;;5042842;28;19913;-57
2021/04/14 05:55:51;;;;;;;;;;;17.50;50.80;;;;;;5043710;28;19920;-59
2021/04/14 05:58:16;;;;;;;;;;;17.60;50.80;;;;;;5038599;28;19917;-58
2021/04/14 06:00:42;;;;;;;;;;;17.60;50.70;;;;;;5043458;28;19913;-57
2021/04/14 06:03:07;;;;;;;;;;;17.60;50.90;;;;;;5043585;28;19929;-59
2021/04/14 06:05:32;;;;;;;;;;;17.60;50.90;;;;;;5042214;28;19912;-57
2021/04/14 06:07:58;;;;;;;;;;;17.60;50.80;;;;;;5042462;28;19962;-57
2021/04/14 06:10:23;;;;;;;;;;;17.60;50.70;;;;;;5042134;28;19913;-58
2021/04/14 06:12:49;;;;;;;;;;;17.60;50.80;;;;;;5042655;28;20000;-58
2021/04/14 06:15:16;;;;;;;;;;;17.50;50.50;;;;;;5014741;28;19913;-59
2021/04/14 06:17:42;;;;;;;;;;;17.60;50.30;;;;;;5041139;28;20321;-56
2021/04/14 06:20:08;;;;;;;;;;;17.50;50.20;;;;;;5044668;28;19912;-58
2021/04/14 06:22:35;;;;;;;;;;;17.50;50.20;;;;;;5044399;28;19916;-59
2021/04/14 06:25:00;;;;;;;;;;;17.50;50.20;;;;;;5027365;28;19917;-59
2021/04/14 06:27:31;;;;;;;;;;;17.60;50.20;;;;;;5043156;28;19971;-59
2021/04/14 06:29:57;;;;;;;;;;;17.60;50.10;;;;;;5025655;28;20003;-59
2021/04/14 06:32:22;;;;;;;;;;;17.60;50.10;;;;;;5044475;28;19919;-60
2021/04/14 06:34:50;;;;;;;;;;;17.60;50.20;;;;;;5043284;28;19913;-59
2021/04/14 06:37:16;;;;;;;;;;;17.60;50.00;;;;;;5044601;22;19952;-56
2021/04/14 06:39:41;;;;;;;;;;;17.60;49.90;;;;;;5024379;28;19913;-54
2021/04/14 06:42:17;;;;;;;;;;;17.60;49.70;;;;;;5007198;28;20007;-59
2021/04/14 06:44:55;;;;;;;;;;;17.60;49.60;;;;;;5025069;28;20374;-57
2021/04/14 06:47:26;;;;;;;;;;;17.60;49.40;;;;;;5024639;28;19928;-56
2021/04/14 06:49:54;;;;;;;;;;;17.60;49.20;;;;;;5024934;28;19940;-58
2021/04/14 06:52:27;;;;;;;;;;;17.60;49.20;;;;;;5006583;28;19914;-59
2021/04/14 06:54:55;;;;;;;;;;;17.60;49.10;;;;;;5006722;28;19928;-56
2021/04/14 06:57:22;;;;;;;;;;;17.70;49.00;;;;;;5024298;28;19963;-55
2021/04/14 06:59:55;;;;;;;;;;;17.70;48.90;;;;;;5007823;28;19929;-57
2021/04/14 07:02:22;;;;;;;;;;;17.70;49.40;;;;;;5010106;28;20300;-58
2021/04/14 07:04:49;;;;;;;;;;;17.70;48.80;;;;;;5011320;28;20378;-57
2021/04/14 07:07:21;;;;;;;;;;;17.60;48.50;;;;;;5009626;28;19932;-58
2021/04/14 07:09:47;;;;;;;;;;;17.60;48.40;;;;;;5010560;28;19924;-57
2021/04/14 07:12:14;;;;;;;;;;;17.70;48.40;;;;;;5009507;28;20004;-55
2021/04/14 07:14:40;;;;;;;;;;;17.70;48.40;;;;;;5010663;28;19992;-54
2021/04/14 07:17:25;;;;;;;;;;;17.70;48.30;;;;;;5010281;28;19913;-56
2021/04/14 07:19:51;;;;;;;;;;;17.60;48.10;;;;;;5016875;28;19944;-57
2021/04/14 07:22:35;;;;;;;;;;;17.70;48.20;;;;;;5028547;28;19917;-55
2021/04/14 07:25:24;;;;;;;;;;;17.70;48.00;;;;;;5009626;28;19995;-55
2021/04/14 07:27:49;;;;;;;;;;;17.70;48.00;;;;;;5019831;28;20410;-55
2021/04/14 07:30:36;;;;;;;;;;;17.70;47.90;;;;;;5027816;28;20004;-54
2021/04/14 07:33:09;;;;;;;;;;;17.70;47.90;;;;;;5010346;28;19936;-57
2021/04/14 07:35:37;;;;;;;;;;;17.70;47.90;;;;;;5010193;28;19913;-56
2021/04/14 07:38:11;;;;;;;;;;;17.70;47.90;;;;;;5010067;28;19972;-55
2021/04/14 07:40:46;;;;;;;;;;;17.60;47.80;;;;;;5027500;28;19924;-56
2021/04/14 07:43:21;;;;;;;;;;;17.60;47.70;;;;;;5028347;28;19924;-56
2021/04/14 07:45:47;;;;;;;;;;;17.60;47.70;;;;;;5027579;28;19917;-55
2021/04/14 07:48:23;;;;;;;;;;;17.70;47.90;;;;;;5027711;28;19955;-55
2021/04/14 07:50:49;;;;;;;;;;;17.60;47.70;;;;;;4993795;28;19920;-53
2021/04/14 07:53:16;;;;;;;;;;;17.70;47.70;;;;;;5009955;28;19952;-55
2021/04/14 07:55:41;;;;;;;;;;;17.60;47.70;;;;;;5027599;28;19921;-54
2021/04/14 07:58:08;;;;;;;;;;;17.60;47.70;;;;;;5010450;28;19913;-54
2021/04/14 08:00:35;;;;;;;;;;;17.60;47.60;;;;;;5027925;28;19921;-53
2021/04/14 08:03:07;;;;;;;;;;;17.70;47.60;;;;;;5009826;28;20016;-53
2021/04/14 08:05:33;;;;;;;;;;;17.60;47.50;;;;;;5027593;28;19913;-57
2021/04/14 08:07:59;;;;;;;;;;;17.60;47.60;;;;;;5027608;28;19959;-53
2021/04/14 08:10:28;;;;;;;;;;;17.60;47.50;;;;;;5027562;28;19913;-56
2021/04/14 08:12:54;;;;;;;;;;;17.60;47.40;;;;;;5009941;28;19913;-55
2021/04/14 08:15:36;;;;;;;;;;;17.70;48.10;;;;;;5027471;28;19963;-53
2021/04/14 08:18:08;;;;;;;;;;;17.60;48.40;;;;;;5008472;28;20393;-54
2021/04/14 08:20:34;;;;;;;;;;;17.60;48.50;;;;;;5009146;28;20008;-57
2021/04/14 08:23:10;;;;;;;;;;;17.60;48.70;;;;;;5027363;28;20011;-56
2021/04/14 08:25:36;;;;;;;;;;;17.60;48.80;;;;;;5027017;28;19913;-55
2021/04/14 08:28:02;;;;;;;;;;;17.60;49.00;;;;;;5026751;28;19913;-56
2021/04/14 08:30:28;;;;;;;;;;;17.60;49.00;;;;;;5009226;28;19913;-57
2021/04/14 08:32:53;;;;;;;;;;;17.60;49.30;;;;;;5027495;28;19965;-56
2021/04/14 08:35:34;;;;;;;;;;;17.60;49.60;;;;;;5026747;28;20341;-56
2021/04/14 08:38:00;;;;;;;;;;;17.60;49.50;;;;;;5026258;28;19928;-55
2021/04/14 08:40:27;;;;;;;;;;;17.50;49.70;;;;;;5008880;28;19967;-53
2021/04/14 08:42:53;;;;;;;;;;;17.50;49.80;;;;;;5027196;28;19995;-52
2021/04/14 08:45:20;;;;;;;;;;;17.50;50.00;;;;;;5026624;28;20000;-56
2021/04/14 08:47:50;;;;;;;;;;;17.50;50.20;;;;;;5026435;28;19967;-56
2021/04/14 08:50:24;;;;;;;;;;;17.40;50.30;;;;;;5009350;28;19924;-57
2021/04/14 08:52:49;;;;;;;;;;;17.40;50.40;;;;;;5009138;28;20355;-53
2021/04/14 08:55:15;;;;;;;;;;;17.40;50.50;;;;;;5026681;28;19957;-53
2021/04/14 08:57:40;;;;;;;;;;;17.40;50.60;;;;;;5025881;28;19920;-55
2021/04/14 09:00:06;;;;;;;;;;;17.50;50.70;;;;;;4992095;28;20000;-55
2021/04/14 09:02:32;;;;;;;;;;;17.40;50.90;;;;;;5026080;28;20220;-57
2021/04/14 09:04:57;;;;;;;;;;;17.40;51.10;;;;;;5008719;28;19913;-54
2021/04/14 09:07:25;;;;;;;;;;;17.40;51.20;;;;;;5008815;28;19967;-52
2021/04/14 09:09:52;;;;;;;;;;;17.40;51.30;;;;;;5008694;28;20386;-55
2021/04/14 09:12:17;;;;;;;;;;;17.40;51.30;;;;;;5025226;28;19939;-55
2021/04/14 09:14:43;;;;;;;;;;;17.40;51.30;;;;;;5025465;28;19917;-57
2021/04/14 09:17:11;;;;;;;;;;;17.40;51.30;;;;;;5025906;28;19913;-57
2021/04/14 09:19:40;;;;;;;;;;;17.40;51.40;;;;;;5025737;28;19913;-57
2021/04/14 09:22:15;;;;;;;;;;;17.40;51.30;;;;;;5025824;28;19920;-53
2021/04/14 09:24:53;;;;;;;;;;;17.40;51.20;;;;;;5024577;28;19952;-56
2021/04/14 09:27:39;;;;;;;;;;;17.40;51.10;;;;;;4991870;28;19964;-56
2021/04/14 09:30:23;;;;;;;;;;;17.40;51.00;;;;;;5014118;28;20000;-54
2021/04/14 09:32:50;;;;;;;;;;;17.50;51.00;;;;;;5025924;28;19917;-53
2021/04/14 09:35:16;;;;;;;;;;;17.50;50.90;;;;;;5025459;28;20014;-57
2021/04/14 09:37:41;;;;;;;;;;;17.50;50.80;;;;;;5024958;28;20497;-54
2021/04/14 09:40:07;;;;;;;;;;;17.60;50.60;;;;;;5025602;28;19920;-54
2021/04/14 09:42:42;;;;;;;;;;;17.60;50.20;;;;;;5007456;28;19996;-56
2021/04/14 09:45:26;;;;;;;;;;;17.60;50.00;;;;;;5025378;28;19963;-56
2021/04/14 09:47:51;;;;;;;;;;;17.60;49.90;;;;;;5024954;28;19920;-53
2021/04/14 09:50:29;;;;;;;;;;;17.60;49.80;;;;;;5006935;28;20337;-56
2021/04/14 09:53:02;;;;;;;;;;;17.60;49.80;;;;;;5024795;28;19999;-57
2021/04/14 09:55:38;;;;;;;;;;;17.60;49.80;;;;;;5026046;28;20279;-58
2021/04/14 09:58:13;;;;;;;;;;;17.60;49.60;;;;;;5007606;28;19924;-58
2021/04/14 10:00:39;;;;;;;;;;;17.60;49.50;;;;;;5007520;28;19952;-58
2021/04/14 10:03:11;;;;;;;;;;;17.70;49.50;;;;;;5007852;28;20024;-58
2021/04/14 10:05:38;;;;;;;;;;;17.60;49.40;;;;;;5007827;28;19967;-56
2021/04/14 10:08:03;;;;;;;;;;;17.70;49.40;;;;;;5025364;28;20025;-57
2021/04/14 10:10:29;;;;;;;;;;;17.70;49.40;;;;;;5007022;28;20426;-56
2021/04/14 10:12:56;;;;;;;;;;;17.70;49.40;;;;;;5026013;28;19917;-56
2021/04/14 10:15:42;;;;;;;;;;;17.70;49.30;;;;;;5008875;28;20364;-57
2021/04/14 10:18:27;;;;;;;;;;;17.70;49.30;;;;;;5024872;28;19917;-57
2021/04/14 10:20:53;;;;;;;;;;;17.70;49.20;;;;;;5025013;28;19913;-56
2021/04/14 10:23:20;;;;;;;;;;;17.70;49.20;;;;;;5025584;28;19966;-56
2021/04/14 10:25:46;;;;;;;;;;;17.70;49.20;;;;;;5025906;28;19999;-56
2021/04/14 10:28:14;;;;;;;;;;;17.70;49.20;;;;;;5008890;28;19913;-57
2021/04/14 10:30:44;;;;;;;;;;;17.70;49.20;;;;;;5026075;28;20694;-55
2021/04/14 10:33:20;;;;;;;;;;;17.70;49.10;;;;;;5008829;28;20004;-57
2021/04/14 10:35:46;;;;;;;;;;;17.60;49.10;;;;;;5008782;28;20436;-57
2021/04/14 10:38:13;;;;;;;;;;;17.60;49.00;;;;;;5029786;28;20171;-56
2021/04/14 10:40:39;;;;;;;;;;;17.70;49.10;;;;;;5029799;28;19913;-57
2021/04/14 10:43:12;;;;;;;;;;;17.60;49.00;;;;;;5029487;28;19917;-56
2021/04/14 10:45:38;;;;;;;;;;;17.60;49.00;;;;;;5029718;28;19914;-58
2021/04/14 10:48:04;;;;;;;;;;;17.60;49.00;;;;;;5011321;28;19924;-55
2021/04/14 10:50:30;;;;;;;;;;;17.60;49.00;;;;;;5029025;28;19917;-52
2021/04/14 10:52:57;;;;;;;;;;;17.60;48.90;;;;;;5029684;28;19913;-53
2021/04/14 10:55:24;;;;;;;;;;;17.60;48.90;;;;;;5011323;28;19920;-56
2021/04/14 10:57:54;;;;;;;;;;;17.60;49.00;;;;;;5011170;28;19924;-55
2021/04/14 11:00:25;;;;;;;;;;;17.60;49.00;;;;;;5010950;28;19940;-55
2021/04/14 11:02:51;;;;;;;;;;;17.60;49.00;;;;;;5028991;28;19921;-55
2021/04/14 11:05:17;;;;;;;;;;;17.50;48.90;;;;;;5028410;28;19931;-54
2021/04/14 11:07:43;;;;;;;;;;;17.60;48.90;;;;;;5010215;28;19921;-55
2021/04/14 11:10:10;;;;;;;;;;;17.60;48.90;;;;;;5010505;28;19963;-53
2021/04/14 11:12:35;;;;;;;;;;;17.50;48.90;;;;;;5010453;28;19917;-55
2021/04/14 11:15:02;;;;;;;;;;;17.50;49.00;;;;;;5010237;28;20363;-55
2021/04/14 11:17:29;;;;;;;;;;;17.50;49.00;;;;;;5010565;28;19913;-57
2021/04/14 11:19:58;;;;;;;;;;;17.50;48.90;;;;;;5028479;28;19913;-57
2021/04/14 11:22:24;;;;;;;;;;;17.50;48.90;;;;;;5028460;28;20012;-55
2021/04/14 11:24:51;;;;;;;;;;;17.60;48.80;;;;;;5027977;28;20000;-56
2021/04/14 11:27:21;;;;;;;;;;;17.50;49.10;;;;;;5028132;28;19921;-54
2021/04/14 11:29:47;;;;;;;;;;;17.50;49.10;;;;;;4992963;28;19928;-56
2021/04/14 11:32:16;;;;;;;;;;;17.50;49.10;;;;;;5009002;28;19913;-53
2021/04/14 11:34:42;;;;;;;;;;;17.50;49.00;;;;;;5010069;28;20441;-56
2021/04/14 11:37:10;;;;;;;;;;;17.50;49.00;;;;;;5008444;28;19925;-56
2021/04/14 11:39:54;;;;;;;;;;;17.50;48.90;;;;;;5026527;28;19920;-53
2021/04/14 11:42:20;;;;;;;;;;;17.60;48.90;;;;;;5026460;28;20008;-56
2021/04/14 11:44:52;;;;;;;;;;;17.60;48.90;;;;;;5026623;28;19944;-56
2021/04/14 11:47:21;;;;;;;;;;;17.60;49.00;;;;;;5026111;28;20398;-54
2021/04/14 11:49:47;;;;;;;;;;;17.60;49.00;;;;;;5026128;28;19921;-54
2021/04/14 11:52:23;;;;;;;;;;;17.50;48.90;;;;;;5026529;28;19974;-55
2021/04/14 11:54:49;;;;;;;;;;;17.50;48.90;;;;;;5026302;28;19913;-55
2021/04/14 11:57:20;;;;;;;;;;;17.50;48.80;;;;;;5008453;28;19921;-57
2021/04/14 11:59:46;;;;;;;;;;;17.50;48.80;;;;;;5008430;28;19913;-56
2021/04/14 12:02:12;;;;;;;;;;;17.60;48.70;;;;;;5026377;28;20279;-54
2021/04/14 12:04:38;;;;;;;;;;;17.60;48.70;;;;;;5026592;28;19913;-57
2021/04/14 12:07:03;;;;;;;;;;;17.60;48.60;;;;;;5008939;28;19920;-57
2021/04/14 12:09:29;;;;;;;;;;;17.60;49.20;;;;;;5026966;28;19917;-57
2021/04/14 12:11:58;;;;;;;;;;;17.60;48.50;;;;;;5027773;28;19925;-56
2021/04/14 12:14:24;;;;;;;;;;;17.60;48.60;;;;;;5027563;28;19975;-57
2021/04/14 12:16:49;;;;;;;;;;;17.60;48.60;;;;;;5027409;28;20297;-56
2021/04/14 12:19:14;;;;;;;;;;;17.60;48.50;;;;;;5027498;28;19917;-55
2021/04/14 12:21:41;;;;;;;;;;;17.60;49.20;;;;;;5025901;28;21390;-57
2021/04/14 12:24:07;;;;;;;;;;;17.60;48.60;;;;;;5027379;28;20354;-57
2021/04/14 12:26:32;;;;;;;;;;;17.60;48.60;;;;;;5026978;28;19917;-54
2021/04/14 12:28:58;;;;;;;;;;;17.60;48.60;;;;;;5027625;28;19921;-59
2021/04/14 12:31:23;;;;;;;;;;;17.60;48.70;;;;;;5027327;28;19939;-56
2021/04/14 12:33:49;;;;;;;;;;;17.60;48.80;;;;;;5008889;28;19936;-56
2021/04/14 12:36:15;;;;;;;;;;;17.60;48.90;;;;;;5025921;28;20398;-58
2021/04/14 12:38:40;;;;;;;;;;;17.50;48.80;;;;;;5062659;22;19925;-59
2021/04/14 12:41:06;;;;;;;;;;;17.50;48.90;;;;;;5029393;28;19913;-59
2021/04/14 12:43:31;;;;;;;;;;;17.50;48.80;;;;;;5027459;28;19917;-60
2021/04/14 12:45:57;;;;;;;;;;;17.50;48.80;;;;;;5027228;28;19987;-60
2021/04/14 12:48:23;;;;;;;;;;;17.50;48.80;;;;;;5027158;28;19922;-60
2021/04/14 12:50:54;;;;;;;;;;;17.60;48.80;;;;;;5026712;28;20332;-59
2021/04/14 12:53:19;;;;;;;;;;;17.60;48.70;;;;;;5026804;28;19914;-59
2021/04/14 12:55:46;;;;;;;;;;;17.60;48.70;;;;;;5025530;28;19920;-60
2021/04/14 12:58:11;;;;;;;;;;;17.60;48.70;;;;;;5025052;28;19914;-59
2021/04/14 13:00:37;;;;;;;;;;;17.60;48.60;;;;;;5025424;28;20015;-61
2021/04/14 13:03:08;;;;;;;;;;;17.60;48.90;;;;;;5027175;28;20064;-61
2021/04/14 13:05:34;;;;;;;;;;;17.60;49.00;;;;;;5026362;28;20011;-61
2021/04/14 13:08:01;;;;;;;;;;;17.60;48.90;;;;;;5024514;28;20036;-60
2021/04/14 13:10:29;;;;;;;;;;;17.60;48.80;;;;;;5027052;28;20022;-61
2021/04/14 13:12:54;;;;;;;;;;;17.70;48.60;;;;;;5024565;28;20789;-60
2021/04/14 13:15:21;;;;;;;;;;;17.70;48.60;;;;;;5026644;28;19914;-61
2021/04/14 13:17:49;;;;;;;;;;;17.70;48.40;;;;;;5037092;28;19917;-61
2021/04/14 13:20:14;;;;;;;;;;;17.70;48.40;;;;;;5045736;28;19912;-61
2021/04/14 13:23:03;;;;;;;;;;;17.70;48.40;;;;;;5046307;28;19921;-61
2021/04/14 13:25:50;;;;;;;;;;;17.70;48.40;;;;;;5038011;28;20021;-60
2021/04/14 13:28:20;;;;;;;;;;;17.70;48.30;;;;;;5045873;28;19912;-61
2021/04/14 13:30:45;;;;;;;;;;;17.60;48.30;;;;;;5045193;28;20019;-60
2021/04/14 13:33:19;;;;;;;;;;;17.60;48.30;;;;;;5045760;28;20418;-60
2021/04/14 13:35:51;;;;;;;;;;;17.70;48.30;;;;;;5046116;28;19912;-60
2021/04/14 13:38:18;;;;;;;;;;;17.70;48.30;;;;;;5045797;28;20027;-59
2021/04/14 13:40:54;;;;;;;;;;;17.70;48.10;;;;;;5045205;28;19924;-61
2021/04/14 13:43:33;;;;;;;;;;;17.70;48.00;;;;;;5028309;28;19924;-61
2021/04/14 13:46:10;;;;;;;;;;;17.70;47.90;;;;;;5028269;28;20440;-63
2021/04/14 13:48:43;;;;;;;;;;;17.70;47.90;;;;;;5045934;28;19913;-61
2021/04/14 13:51:12;;;;;;;;;;;17.60;48.40;;;;;;5028130;28;20374;-60
2021/04/14 13:53:38;;;;;;;;;;;17.60;49.40;;;;;;5028227;28;20134;-61
2021/04/14 13:56:26;;;;;;;;;;;17.50;50.10;;;;;;5027849;28;19916;-61
2021/04/14 13:59:05;;;;;;;;;;;17.60;50.50;;;;;;5037531;28;19979;-59
2021/04/14 14:01:33;;;;;;;;;;;17.50;50.90;;;;;;5044416;28;20397;-60
2021/04/14 14:03:59;;;;;;;;;;;17.50;51.20;;;;;;5027858;28;19913;-62
2021/04/14 14:06:24;;;;;;;;;;;17.50;51.50;;;;;;5045750;28;19919;-61
2021/04/14 14:08:50;;;;;;;;;;;17.50;51.50;;;;;;5045782;28;19975;-61
2021/04/14 14:11:15;;;;;;;;;;;17.60;51.30;;;;;;5030322;28;19913;-60
2021/04/14 14:13:43;;;;;;;;;;;17.60;51.30;;;;;;5049751;28;19913;-60
2021/04/14 14:16:09;;;;;;;;;;;17.60;51.10;;;;;;5032065;28;20413;-61
2021/04/14 14:18:35;;;;;;;;;;;17.60;51.00;;;;;;5049313;28;19920;-61